sensor_id;sensor_type;location;lat;lon;timestamp;temperature;humidity
15343;DHT22;7771;48.478;8.936;2022-08-01T00:01:39;21.80;92.00
15343;DHT22;7771;48.478;8.936;2022-08-01T00:04:06;21.80;92.00
15343;DHT22;7771;48.478;8.936;2022-08-01T00:06:33;21.70;91.70
15343;DHT22;7771;48.478;8.936;2022-08-01T00:09:00;21.70;91.80
15343;DHT22;7771;48.478;8.936;2022-08-01T00:11:27;21.70;92.10
15343;DHT22;7771;48.478;8.936;2022-08-01T00:13:55;21.70;92.10
15343;DHT22;7771;48.478;8.936;2022-08-01T00:16:22;21.60;92.20
15343;DHT22;7771;48.478;8.936;2022-08-01T00:18:50;21.60;92.30
15343;DHT22;7771;48.478;8.936;2022-08-01T00:21:17;21.60;92.40
15343;DHT22;7771;48.478;8.936;2022-08-01T00:23:44;21.60;92.50
15343;DHT22;7771;48.478;8.936;2022-08-01T00:26:12;21.60;92.50
15343;DHT22;7771;48.478;8.936;2022-08-01T00:28:38;21.60;92.40
15343;DHT22;7771;48.478;8.936;2022-08-01T00:31:05;21.60;92.60
15343;DHT22;7771;48.478;8.936;2022-08-01T00:33:31;21.40;92.70
15343;DHT22;7771;48.478;8.936;2022-08-01T00:35:58;21.40;93.00
15343;DHT22;7771;48.478;8.936;2022-08-01T00:38:25;21.30;93.20
15343;DHT22;7771;48.478;8.936;2022-08-01T00:40:52;21.20;93.60
15343;DHT22;7771;48.478;8.936;2022-08-01T00:43:19;21.20;93.90
15343;DHT22;7771;48.478;8.936;2022-08-01T00:45:47;21.10;94.10
15343;DHT22;7771;48.478;8.936;2022-08-01T00:48:14;21.10;94.00
15343;DHT22;7771;48.478;8.936;2022-08-01T00:50:40;21.00;94.20
15343;DHT22;7771;48.478;8.936;2022-08-01T00:53:08;20.80;94.80
15343;DHT22;7771;48.478;8.936;2022-08-01T00:55:35;20.80;95.20
15343;DHT22;7771;48.478;8.936;2022-08-01T00:58:02;20.70;95.30
15343;DHT22;7771;48.478;8.936;2022-08-01T01:00:29;20.60;95.50
15343;DHT22;7771;48.478;8.936;2022-08-01T01:02:56;20.60;95.70
15343;DHT22;7771;48.478;8.936;2022-08-01T01:05:23;20.50;95.90
15343;DHT22;7771;48.478;8.936;2022-08-01T01:07:57;20.50;96.10
15343;DHT22;7771;48.478;8.936;2022-08-01T01:10:25;20.40;96.30
15343;DHT22;7771;48.478;8.936;2022-08-01T01:12:55;20.40;96.50
15343;DHT22;7771;48.478;8.936;2022-08-01T01:15:43;20.30;96.90
15343;DHT22;7771;48.478;8.936;2022-08-01T01:18:11;20.30;96.80
15343;DHT22;7771;48.478;8.936;2022-08-01T01:20:38;20.30;97.10
15343;DHT22;7771;48.478;8.936;2022-08-01T01:23:23;20.30;97.30
15343;DHT22;7771;48.478;8.936;2022-08-01T01:31:24;20.00;98.50
15343;DHT22;7771;48.478;8.936;2022-08-01T01:33:51;20.00;98.80
15343;DHT22;7771;48.478;8.936;2022-08-01T01:36:17;19.90;99.00
15343;DHT22;7771;48.478;8.936;2022-08-01T01:38:45;20.00;99.30
15343;DHT22;7771;48.478;8.936;2022-08-01T01:41:11;19.90;99.50
15343;DHT22;7771;48.478;8.936;2022-08-01T01:43:38;20.00;99.70
15343;DHT22;7771;48.478;8.936;2022-08-01T01:46:05;20.00;99.80
15343;DHT22;7771;48.478;8.936;2022-08-01T01:48:32;19.90;99.90
15343;DHT22;7771;48.478;8.936;2022-08-01T01:50:59;19.90;99.90
15343;DHT22;7771;48.478;8.936;2022-08-01T01:53:27;19.90;99.90
15343;DHT22;7771;48.478;8.936;2022-08-01T01:55:55;19.90;99.90
15343;DHT22;7771;48.478;8.936;2022-08-01T01:58:21;19.80;99.90
15343;DHT22;7771;48.478;8.936;2022-08-01T02:00:48;19.80;99.90
15343;DHT22;7771;48.478;8.936;2022-08-01T02:03:14;19.80;99.90
15343;DHT22;7771;48.478;8.936;2022-08-01T02:05:40;19.80;99.90
15343;DHT22;7771;48.478;8.936;2022-08-01T02:08:07;19.80;99.90
15343;DHT22;7771;48.478;8.936;2022-08-01T02:10:34;19.80;99.90
15343;DHT22;7771;48.478;8.936;2022-08-01T02:13:02;19.80;99.90
15343;DHT22;7771;48.478;8.936;2022-08-01T02:15:27;19.80;99.90
15343;DHT22;7771;48.478;8.936;2022-08-01T02:17:55;19.70;99.90
15343;DHT22;7771;48.478;8.936;2022-08-01T02:20:22;19.70;99.90
15343;DHT22;7771;48.478;8.936;2022-08-01T02:22:50;19.70;99.90
15343;DHT22;7771;48.478;8.936;2022-08-01T02:25:23;19.60;99.90
15343;DHT22;7771;48.478;8.936;2022-08-01T02:28:15;19.60;99.90
15343;DHT22;7771;48.478;8.936;2022-08-01T02:30:42;19.50;99.90
15343;DHT22;7771;48.478;8.936;2022-08-01T02:33:14;19.50;99.90
15343;DHT22;7771;48.478;8.936;2022-08-01T02:35:38;19.40;99.90
15343;DHT22;7771;48.478;8.936;2022-08-01T02:38:05;19.40;99.90
15343;DHT22;7771;48.478;8.936;2022-08-01T02:40:31;19.40;99.90
15343;DHT22;7771;48.478;8.936;2022-08-01T02:42:59;19.40;99.90
15343;DHT22;7771;48.478;8.936;2022-08-01T02:45:25;19.30;99.90
15343;DHT22;7771;48.478;8.936;2022-08-01T02:47:55;19.30;99.90
15343;DHT22;7771;48.478;8.936;2022-08-01T02:50:21;19.20;99.90
15343;DHT22;7771;48.478;8.936;2022-08-01T02:52:50;19.20;99.90
15343;DHT22;7771;48.478;8.936;2022-08-01T02:55:16;19.20;99.90
15343;DHT22;7771;48.478;8.936;2022-08-01T02:57:44;19.20;99.90
15343;DHT22;7771;48.478;8.936;2022-08-01T03:00:10;19.20;99.90
15343;DHT22;7771;48.478;8.936;2022-08-01T03:02:37;19.20;99.90
15343;DHT22;7771;48.478;8.936;2022-08-01T03:05:04;19.10;99.90
15343;DHT22;7771;48.478;8.936;2022-08-01T03:07:31;19.10;99.90
15343;DHT22;7771;48.478;8.936;2022-08-01T03:09:59;19.00;99.90
15343;DHT22;7771;48.478;8.936;2022-08-01T03:12:27;19.00;99.90
15343;DHT22;7771;48.478;8.936;2022-08-01T03:14:53;19.00;99.90
15343;DHT22;7771;48.478;8.936;2022-08-01T03:17:19;19.00;99.90
15343;DHT22;7771;48.478;8.936;2022-08-01T03:19:46;18.90;99.90
15343;DHT22;7771;48.478;8.936;2022-08-01T03:22:13;18.90;99.90
15343;DHT22;7771;48.478;8.936;2022-08-01T03:24:40;18.90;99.90
15343;DHT22;7771;48.478;8.936;2022-08-01T03:27:06;18.80;99.90
15343;DHT22;7771;48.478;8.936;2022-08-01T03:29:33;18.80;99.90
15343;DHT22;7771;48.478;8.936;2022-08-01T03:32:00;18.70;99.90
15343;DHT22;7771;48.478;8.936;2022-08-01T03:34:27;18.80;99.90
15343;DHT22;7771;48.478;8.936;2022-08-01T03:37:03;18.80;99.90
15343;DHT22;7771;48.478;8.936;2022-08-01T03:39:28;18.80;99.90
15343;DHT22;7771;48.478;8.936;2022-08-01T03:41:54;18.80;99.90
15343;DHT22;7771;48.478;8.936;2022-08-01T03:44:20;18.70;99.90
15343;DHT22;7771;48.478;8.936;2022-08-01T03:46:47;18.80;99.90
15343;DHT22;7771;48.478;8.936;2022-08-01T03:49:14;18.80;99.90
15343;DHT22;7771;48.478;8.936;2022-08-01T03:51:41;18.80;99.90
15343;DHT22;7771;48.478;8.936;2022-08-01T03:54:09;18.70;99.90
15343;DHT22;7771;48.478;8.936;2022-08-01T03:56:36;18.60;99.90
15343;DHT22;7771;48.478;8.936;2022-08-01T03:59:04;18.60;99.90
15343;DHT22;7771;48.478;8.936;2022-08-01T04:01:31;18.60;99.90
15343;DHT22;7771;48.478;8.936;2022-08-01T04:03:59;18.60;99.90
15343;DHT22;7771;48.478;8.936;2022-08-01T04:06:25;18.60;99.90
15343;DHT22;7771;48.478;8.936;2022-08-01T04:08:52;18.60;99.90
15343;DHT22;7771;48.478;8.936;2022-08-01T04:11:24;18.60;99.90
15343;DHT22;7771;48.478;8.936;2022-08-01T04:13:51;18.60;99.90
15343;DHT22;7771;48.478;8.936;2022-08-01T04:16:18;18.60;99.90
15343;DHT22;7771;48.478;8.936;2022-08-01T04:18:44;18.60;99.90
15343;DHT22;7771;48.478;8.936;2022-08-01T04:21:12;18.70;99.90
15343;DHT22;7771;48.478;8.936;2022-08-01T04:23:40;18.70;99.90
15343;DHT22;7771;48.478;8.936;2022-08-01T04:26:05;18.70;99.90
15343;DHT22;7771;48.478;8.936;2022-08-01T04:28:33;18.70;99.90
15343;DHT22;7771;48.478;8.936;2022-08-01T04:30:59;18.70;99.90
15343;DHT22;7771;48.478;8.936;2022-08-01T04:33:26;18.80;99.90
15343;DHT22;7771;48.478;8.936;2022-08-01T04:35:54;18.80;99.90
15343;DHT22;7771;48.478;8.936;2022-08-01T04:38:22;18.70;99.90
15343;DHT22;7771;48.478;8.936;2022-08-01T04:40:48;18.70;99.90
15343;DHT22;7771;48.478;8.936;2022-08-01T04:43:15;18.70;99.90
15343;DHT22;7771;48.478;8.936;2022-08-01T04:45:42;18.70;99.90
15343;DHT22;7771;48.478;8.936;2022-08-01T04:48:10;18.60;99.90
15343;DHT22;7771;48.478;8.936;2022-08-01T04:53:17;18.60;99.90
15343;DHT22;7771;48.478;8.936;2022-08-01T04:55:43;18.50;99.90
15343;DHT22;7771;48.478;8.936;2022-08-01T04:58:10;18.50;99.90
15343;DHT22;7771;48.478;8.936;2022-08-01T05:00:36;18.40;99.90
15343;DHT22;7771;48.478;8.936;2022-08-01T05:03:04;18.40;99.90
15343;DHT22;7771;48.478;8.936;2022-08-01T05:05:31;18.50;99.90
15343;DHT22;7771;48.478;8.936;2022-08-01T05:07:59;18.50;99.90
15343;DHT22;7771;48.478;8.936;2022-08-01T05:10:25;18.60;99.90
15343;DHT22;7771;48.478;8.936;2022-08-01T05:12:52;18.50;99.90
15343;DHT22;7771;48.478;8.936;2022-08-01T05:15:19;18.60;99.90
15343;DHT22;7771;48.478;8.936;2022-08-01T05:17:46;18.60;99.90
15343;DHT22;7771;48.478;8.936;2022-08-01T05:20:14;18.70;99.90
15343;DHT22;7771;48.478;8.936;2022-08-01T05:22:41;18.70;99.90
15343;DHT22;7771;48.478;8.936;2022-08-01T05:25:07;18.80;99.90
15343;DHT22;7771;48.478;8.936;2022-08-01T05:27:34;18.80;99.90
15343;DHT22;7771;48.478;8.936;2022-08-01T05:30:02;18.80;99.90
15343;DHT22;7771;48.478;8.936;2022-08-01T05:32:28;18.80;99.90
15343;DHT22;7771;48.478;8.936;2022-08-01T05:34:55;18.90;99.90
15343;DHT22;7771;48.478;8.936;2022-08-01T05:37:23;18.90;99.90
15343;DHT22;7771;48.478;8.936;2022-08-01T05:39:50;18.90;99.90
15343;DHT22;7771;48.478;8.936;2022-08-01T05:42:16;19.00;99.90
15343;DHT22;7771;48.478;8.936;2022-08-01T05:44:43;19.10;99.90
15343;DHT22;7771;48.478;8.936;2022-08-01T05:47:11;19.10;99.90
15343;DHT22;7771;48.478;8.936;2022-08-01T05:49:38;19.10;99.90
15343;DHT22;7771;48.478;8.936;2022-08-01T05:52:05;19.10;99.90
15343;DHT22;7771;48.478;8.936;2022-08-01T05:54:33;19.10;99.90
15343;DHT22;7771;48.478;8.936;2022-08-01T05:57:00;19.10;99.90
15343;DHT22;7771;48.478;8.936;2022-08-01T05:59:28;19.20;99.90
15343;DHT22;7771;48.478;8.936;2022-08-01T06:01:55;19.20;99.90
15343;DHT22;7771;48.478;8.936;2022-08-01T06:04:22;19.30;99.90
15343;DHT22;7771;48.478;8.936;2022-08-01T06:06:50;19.30;99.90
15343;DHT22;7771;48.478;8.936;2022-08-01T06:09:16;19.40;99.90
15343;DHT22;7771;48.478;8.936;2022-08-01T06:11:43;19.40;99.90
15343;DHT22;7771;48.478;8.936;2022-08-01T06:14:09;19.50;99.90
15343;DHT22;7771;48.478;8.936;2022-08-01T06:16:36;19.50;99.90
15343;DHT22;7771;48.478;8.936;2022-08-01T06:19:03;19.60;99.90
15343;DHT22;7771;48.478;8.936;2022-08-01T06:21:30;19.70;99.90
15343;DHT22;7771;48.478;8.936;2022-08-01T06:23:56;19.80;99.90
15343;DHT22;7771;48.478;8.936;2022-08-01T06:26:23;19.90;99.90
15343;DHT22;7771;48.478;8.936;2022-08-01T06:28:50;19.90;99.90
15343;DHT22;7771;48.478;8.936;2022-08-01T06:31:17;20.00;99.90
15343;DHT22;7771;48.478;8.936;2022-08-01T06:33:44;20.10;99.90
15343;DHT22;7771;48.478;8.936;2022-08-01T06:36:11;20.20;99.90
15343;DHT22;7771;48.478;8.936;2022-08-01T06:38:38;20.30;99.90
15343;DHT22;7771;48.478;8.936;2022-08-01T06:41:04;20.50;99.90
15343;DHT22;7771;48.478;8.936;2022-08-01T06:43:32;20.60;99.90
15343;DHT22;7771;48.478;8.936;2022-08-01T06:45:59;20.70;99.90
15343;DHT22;7771;48.478;8.936;2022-08-01T06:48:25;20.90;99.90
15343;DHT22;7771;48.478;8.936;2022-08-01T06:50:52;21.30;99.90
15343;DHT22;7771;48.478;8.936;2022-08-01T06:53:19;21.70;99.90
15343;DHT22;7771;48.478;8.936;2022-08-01T06:55:46;21.90;99.90
15343;DHT22;7771;48.478;8.936;2022-08-01T06:58:12;22.10;99.90
15343;DHT22;7771;48.478;8.936;2022-08-01T07:00:40;22.30;99.90
15343;DHT22;7771;48.478;8.936;2022-08-01T07:03:07;22.50;99.90
15343;DHT22;7771;48.478;8.936;2022-08-01T07:05:34;22.70;99.90
15343;DHT22;7771;48.478;8.936;2022-08-01T07:08:01;23.10;99.90
15343;DHT22;7771;48.478;8.936;2022-08-01T07:10:28;23.00;99.90
15343;DHT22;7771;48.478;8.936;2022-08-01T07:12:55;25.40;99.90
15343;DHT22;7771;48.478;8.936;2022-08-01T07:15:23;27.10;99.90
15343;DHT22;7771;48.478;8.936;2022-08-01T07:17:49;27.00;99.90
15343;DHT22;7771;48.478;8.936;2022-08-01T07:20:16;28.70;98.40
15343;DHT22;7771;48.478;8.936;2022-08-01T07:22:42;30.10;94.90
15343;DHT22;7771;48.478;8.936;2022-08-01T07:25:09;31.50;91.80
15343;DHT22;7771;48.478;8.936;2022-08-01T07:27:36;32.70;87.70
15343;DHT22;7771;48.478;8.936;2022-08-01T07:30:03;34.60;77.50
15343;DHT22;7771;48.478;8.936;2022-08-01T07:32:29;34.70;77.80
15343;DHT22;7771;48.478;8.936;2022-08-01T07:34:56;35.60;73.90
15343;DHT22;7771;48.478;8.936;2022-08-01T07:37:23;36.90;65.70
15343;DHT22;7771;48.478;8.936;2022-08-01T07:39:50;37.20;65.10
15343;DHT22;7771;48.478;8.936;2022-08-01T07:42:18;37.60;63.30
15343;DHT22;7771;48.478;8.936;2022-08-01T07:44:45;37.90;62.20
15343;DHT22;7771;48.478;8.936;2022-08-01T07:47:12;38.20;61.10
15343;DHT22;7771;48.478;8.936;2022-08-01T07:49:40;38.60;59.70
15343;DHT22;7771;48.478;8.936;2022-08-01T07:52:07;38.50;59.60
15343;DHT22;7771;48.478;8.936;2022-08-01T07:54:33;38.90;59.00
15343;DHT22;7771;48.478;8.936;2022-08-01T07:57:00;39.20;58.30
15343;DHT22;7771;48.478;8.936;2022-08-01T07:59:26;39.60;57.40
15343;DHT22;7771;48.478;8.936;2022-08-01T08:01:53;39.90;56.10
15343;DHT22;7771;48.478;8.936;2022-08-01T08:04:19;39.90;55.40
15343;DHT22;7771;48.478;8.936;2022-08-01T08:06:46;39.90;55.70
15343;DHT22;7771;48.478;8.936;2022-08-01T08:09:13;40.00;55.10
15343;DHT22;7771;48.478;8.936;2022-08-01T08:11:41;39.70;54.90
15343;DHT22;7771;48.478;8.936;2022-08-01T08:14:08;39.00;55.30
15343;DHT22;7771;48.478;8.936;2022-08-01T08:16:35;38.10;56.10
15343;DHT22;7771;48.478;8.936;2022-08-01T08:19:03;37.10;56.90
15343;DHT22;7771;48.478;8.936;2022-08-01T08:21:30;36.10;57.80
15343;DHT22;7771;48.478;8.936;2022-08-01T08:23:57;36.10;57.80
15343;DHT22;7771;48.478;8.936;2022-08-01T08:26:29;35.60;59.30
15343;DHT22;7771;48.478;8.936;2022-08-01T08:28:55;34.50;60.50
15343;DHT22;7771;48.478;8.936;2022-08-01T08:31:22;34.00;61.70
15343;DHT22;7771;48.478;8.936;2022-08-01T08:33:49;34.00;62.40
15343;DHT22;7771;48.478;8.936;2022-08-01T08:36:16;33.10;64.70
15343;DHT22;7771;48.478;8.936;2022-08-01T08:38:43;32.70;65.00
15343;DHT22;7771;48.478;8.936;2022-08-01T08:41:11;32.60;65.70
15343;DHT22;7771;48.478;8.936;2022-08-01T08:43:37;32.50;65.20
15343;DHT22;7771;48.478;8.936;2022-08-01T08:46:04;32.40;65.40
15343;DHT22;7771;48.478;8.936;2022-08-01T08:48:31;32.40;66.00
15343;DHT22;7771;48.478;8.936;2022-08-01T08:50:57;32.30;65.90
15343;DHT22;7771;48.478;8.936;2022-08-01T08:53:24;32.20;67.20
15343;DHT22;7771;48.478;8.936;2022-08-01T08:55:51;31.80;66.60
15343;DHT22;7771;48.478;8.936;2022-08-01T08:58:18;31.40;67.60
15343;DHT22;7771;48.478;8.936;2022-08-01T09:00:45;31.10;68.30
15343;DHT22;7771;48.478;8.936;2022-08-01T09:03:13;31.00;69.40
15343;DHT22;7771;48.478;8.936;2022-08-01T09:05:39;30.90;69.10
15343;DHT22;7771;48.478;8.936;2022-08-01T09:08:07;31.10;68.90
15343;DHT22;7771;48.478;8.936;2022-08-01T09:10:34;31.30;69.40
15343;DHT22;7771;48.478;8.936;2022-08-01T09:13:04;31.50;68.80
15343;DHT22;7771;48.478;8.936;2022-08-01T09:15:37;31.70;68.60
15343;DHT22;7771;48.478;8.936;2022-08-01T09:18:04;32.00;67.90
15343;DHT22;7771;48.478;8.936;2022-08-01T09:20:32;32.10;67.50
15343;DHT22;7771;48.478;8.936;2022-08-01T09:22:59;32.10;67.30
15343;DHT22;7771;48.478;8.936;2022-08-01T09:25:26;32.30;67.90
15343;DHT22;7771;48.478;8.936;2022-08-01T09:28:01;32.50;67.00
15343;DHT22;7771;48.478;8.936;2022-08-01T09:30:21;32.40;66.20
15343;DHT22;7771;48.478;8.936;2022-08-01T09:32:57;32.30;66.50
15343;DHT22;7771;48.478;8.936;2022-08-01T09:35:25;32.20;66.80
15343;DHT22;7771;48.478;8.936;2022-08-01T09:37:51;32.00;65.80
15343;DHT22;7771;48.478;8.936;2022-08-01T09:40:17;31.90;66.50
15343;DHT22;7771;48.478;8.936;2022-08-01T09:42:44;31.60;66.60
15343;DHT22;7771;48.478;8.936;2022-08-01T09:45:29;31.30;67.00
15343;DHT22;7771;48.478;8.936;2022-08-01T09:47:38;30.90;67.50
15343;DHT22;7771;48.478;8.936;2022-08-01T09:50:05;30.70;69.00
15343;DHT22;7771;48.478;8.936;2022-08-01T09:52:31;30.60;68.70
15343;DHT22;7771;48.478;8.936;2022-08-01T09:55:00;30.60;69.70
15343;DHT22;7771;48.478;8.936;2022-08-01T09:57:26;30.60;69.30
15343;DHT22;7771;48.478;8.936;2022-08-01T09:59:54;30.50;70.40
15343;DHT22;7771;48.478;8.936;2022-08-01T10:02:30;30.40;69.40
15343;DHT22;7771;48.478;8.936;2022-08-01T10:05:04;30.40;69.90
15343;DHT22;7771;48.478;8.936;2022-08-01T10:07:30;30.20;70.00
15343;DHT22;7771;48.478;8.936;2022-08-01T10:10:08;30.20;70.20
15343;DHT22;7771;48.478;8.936;2022-08-01T10:12:23;30.10;70.40
15343;DHT22;7771;48.478;8.936;2022-08-01T10:14:50;30.10;71.00
15343;DHT22;7771;48.478;8.936;2022-08-01T10:17:17;30.00;71.40
15343;DHT22;7771;48.478;8.936;2022-08-01T10:19:43;29.90;71.30
15343;DHT22;7771;48.478;8.936;2022-08-01T10:22:11;29.80;71.80
15343;DHT22;7771;48.478;8.936;2022-08-01T10:24:38;30.00;72.40
15343;DHT22;7771;48.478;8.936;2022-08-01T10:27:07;30.30;71.90
15343;DHT22;7771;48.478;8.936;2022-08-01T10:29:43;30.20;71.90
15343;DHT22;7771;48.478;8.936;2022-08-01T10:32:09;30.60;69.50
15343;DHT22;7771;48.478;8.936;2022-08-01T10:34:36;30.60;69.90
15343;DHT22;7771;48.478;8.936;2022-08-01T10:37:02;30.80;68.20
15343;DHT22;7771;48.478;8.936;2022-08-01T10:39:30;30.80;68.40
15343;DHT22;7771;48.478;8.936;2022-08-01T10:41:56;30.70;68.40
15343;DHT22;7771;48.478;8.936;2022-08-01T10:44:24;30.50;68.60
15343;DHT22;7771;48.478;8.936;2022-08-01T10:46:52;30.40;69.80
15343;DHT22;7771;48.478;8.936;2022-08-01T10:49:19;30.30;69.80
15343;DHT22;7771;48.478;8.936;2022-08-01T10:51:45;30.30;69.80
15343;DHT22;7771;48.478;8.936;2022-08-01T10:54:12;30.30;69.30
15343;DHT22;7771;48.478;8.936;2022-08-01T10:56:40;30.20;70.00
15343;DHT22;7771;48.478;8.936;2022-08-01T10:59:06;30.20;69.50
15343;DHT22;7771;48.478;8.936;2022-08-01T11:01:33;30.10;69.50
15343;DHT22;7771;48.478;8.936;2022-08-01T11:04:06;30.10;70.00
15343;DHT22;7771;48.478;8.936;2022-08-01T11:06:43;30.00;69.60
15343;DHT22;7771;48.478;8.936;2022-08-01T11:09:27;29.90;70.00
15343;DHT22;7771;48.478;8.936;2022-08-01T11:11:57;29.80;70.90
15343;DHT22;7771;48.478;8.936;2022-08-01T11:14:23;29.70;70.40
15343;DHT22;7771;48.478;8.936;2022-08-01T11:16:50;29.70;70.60
15343;DHT22;7771;48.478;8.936;2022-08-01T11:19:16;29.70;71.10
15343;DHT22;7771;48.478;8.936;2022-08-01T11:21:59;29.70;70.30
15343;DHT22;7771;48.478;8.936;2022-08-01T11:27:18;29.60;71.80
15343;DHT22;7771;48.478;8.936;2022-08-01T11:29:43;29.60;71.60
15343;DHT22;7771;48.478;8.936;2022-08-01T11:32:23;29.70;71.80
15343;DHT22;7771;48.478;8.936;2022-08-01T11:34:52;30.00;70.70
15343;DHT22;7771;48.478;8.936;2022-08-01T11:37:23;30.10;70.70
15343;DHT22;7771;48.478;8.936;2022-08-01T11:40:25;30.10;70.90
15343;DHT22;7771;48.478;8.936;2022-08-01T11:45:17;30.00;70.10
15343;DHT22;7771;48.478;8.936;2022-08-01T11:47:48;30.00;70.00
15343;DHT22;7771;48.478;8.936;2022-08-01T11:50:31;29.90;70.80
15343;DHT22;7771;48.478;8.936;2022-08-01T11:53:00;30.00;71.10
15343;DHT22;7771;48.478;8.936;2022-08-01T11:55:26;30.00;71.80
15343;DHT22;7771;48.478;8.936;2022-08-01T11:57:58;30.10;72.00
15343;DHT22;7771;48.478;8.936;2022-08-01T12:00:19;30.20;71.30
15343;DHT22;7771;48.478;8.936;2022-08-01T12:02:46;30.20;71.70
15343;DHT22;7771;48.478;8.936;2022-08-01T12:05:14;30.10;71.50
15343;DHT22;7771;48.478;8.936;2022-08-01T12:07:41;30.00;71.50
15343;DHT22;7771;48.478;8.936;2022-08-01T12:10:10;29.90;71.00
15343;DHT22;7771;48.478;8.936;2022-08-01T12:12:36;29.80;71.80
15343;DHT22;7771;48.478;8.936;2022-08-01T12:15:04;29.60;71.80
15343;DHT22;7771;48.478;8.936;2022-08-01T12:17:32;29.50;72.70
15343;DHT22;7771;48.478;8.936;2022-08-01T12:19:59;29.50;73.30
15343;DHT22;7771;48.478;8.936;2022-08-01T12:22:26;29.40;74.30
15343;DHT22;7771;48.478;8.936;2022-08-01T12:24:54;29.50;73.50
15343;DHT22;7771;48.478;8.936;2022-08-01T12:27:26;29.60;73.00
15343;DHT22;7771;48.478;8.936;2022-08-01T12:29:51;29.80;72.10
15343;DHT22;7771;48.478;8.936;2022-08-01T12:32:24;30.00;71.80
15343;DHT22;7771;48.478;8.936;2022-08-01T12:34:49;30.00;72.30
15343;DHT22;7771;48.478;8.936;2022-08-01T12:37:16;30.50;72.20
15343;DHT22;7771;48.478;8.936;2022-08-01T12:39:44;30.80;71.90
15343;DHT22;7771;48.478;8.936;2022-08-01T12:42:11;30.90;71.50
15343;DHT22;7771;48.478;8.936;2022-08-01T12:44:39;31.00;71.30
15343;DHT22;7771;48.478;8.936;2022-08-01T12:47:06;31.20;68.90
15343;DHT22;7771;48.478;8.936;2022-08-01T12:49:33;31.20;68.90
15343;DHT22;7771;48.478;8.936;2022-08-01T12:51:59;31.10;69.00
15343;DHT22;7771;48.478;8.936;2022-08-01T12:54:25;30.90;69.20
15343;DHT22;7771;48.478;8.936;2022-08-01T12:56:52;30.80;69.70
15343;DHT22;7771;48.478;8.936;2022-08-01T12:59:24;30.80;70.30
15343;DHT22;7771;48.478;8.936;2022-08-01T13:01:50;30.50;70.10
15343;DHT22;7771;48.478;8.936;2022-08-01T13:04:16;30.60;70.70
15343;DHT22;7771;48.478;8.936;2022-08-01T13:06:43;30.70;70.30
15343;DHT22;7771;48.478;8.936;2022-08-01T13:09:09;30.70;70.80
15343;DHT22;7771;48.478;8.936;2022-08-01T13:11:39;30.80;69.90
15343;DHT22;7771;48.478;8.936;2022-08-01T13:14:06;30.80;69.80
15343;DHT22;7771;48.478;8.936;2022-08-01T13:16:34;30.80;69.50
15343;DHT22;7771;48.478;8.936;2022-08-01T13:19:00;30.70;69.10
15343;DHT22;7771;48.478;8.936;2022-08-01T13:21:28;30.70;69.10
15343;DHT22;7771;48.478;8.936;2022-08-01T13:24:03;30.60;68.40
15343;DHT22;7771;48.478;8.936;2022-08-01T13:29:07;30.60;69.30
15343;DHT22;7771;48.478;8.936;2022-08-01T13:31:35;30.60;69.30
15343;DHT22;7771;48.478;8.936;2022-08-01T13:34:00;30.70;69.00
15343;DHT22;7771;48.478;8.936;2022-08-01T13:36:28;30.60;69.70
15343;DHT22;7771;48.478;8.936;2022-08-01T13:38:54;30.40;69.40
15343;DHT22;7771;48.478;8.936;2022-08-01T13:41:27;30.40;69.40
15343;DHT22;7771;48.478;8.936;2022-08-01T13:43:54;30.40;69.10
15343;DHT22;7771;48.478;8.936;2022-08-01T13:46:21;30.40;69.10
15343;DHT22;7771;48.478;8.936;2022-08-01T13:48:48;30.50;69.80
15343;DHT22;7771;48.478;8.936;2022-08-01T13:51:15;30.70;69.40
15343;DHT22;7771;48.478;8.936;2022-08-01T13:53:41;31.00;68.90
15343;DHT22;7771;48.478;8.936;2022-08-01T13:56:08;31.30;68.00
15343;DHT22;7771;48.478;8.936;2022-08-01T13:58:35;31.30;68.50
15343;DHT22;7771;48.478;8.936;2022-08-01T14:01:02;31.60;68.00
15343;DHT22;7771;48.478;8.936;2022-08-01T14:03:29;32.20;66.30
15343;DHT22;7771;48.478;8.936;2022-08-01T14:05:56;32.30;65.40
15343;DHT22;7771;48.478;8.936;2022-08-01T14:08:23;32.30;65.10
15343;DHT22;7771;48.478;8.936;2022-08-01T14:10:51;32.30;65.50
15343;DHT22;7771;48.478;8.936;2022-08-01T14:13:18;32.20;65.60
15343;DHT22;7771;48.478;8.936;2022-08-01T14:15:45;32.20;65.60
15343;DHT22;7771;48.478;8.936;2022-08-01T14:18:13;32.00;66.00
15343;DHT22;7771;48.478;8.936;2022-08-01T14:20:39;32.00;65.90
15343;DHT22;7771;48.478;8.936;2022-08-01T14:23:06;31.80;65.80
15343;DHT22;7771;48.478;8.936;2022-08-01T14:25:33;31.70;66.10
15343;DHT22;7771;48.478;8.936;2022-08-01T14:27:59;31.60;66.30
15343;DHT22;7771;48.478;8.936;2022-08-01T14:30:26;31.60;66.90
15343;DHT22;7771;48.478;8.936;2022-08-01T14:32:52;31.50;66.60
15343;DHT22;7771;48.478;8.936;2022-08-01T14:35:19;31.30;67.10
15343;DHT22;7771;48.478;8.936;2022-08-01T14:37:46;31.20;67.10
15343;DHT22;7771;48.478;8.936;2022-08-01T14:40:12;31.00;67.80
15343;DHT22;7771;48.478;8.936;2022-08-01T14:42:39;30.90;68.70
15343;DHT22;7771;48.478;8.936;2022-08-01T14:45:07;30.80;69.00
15343;DHT22;7771;48.478;8.936;2022-08-01T14:47:37;30.70;69.30
15343;DHT22;7771;48.478;8.936;2022-08-01T14:50:05;30.70;67.80
15343;DHT22;7771;48.478;8.936;2022-08-01T14:52:33;30.40;68.80
15343;DHT22;7771;48.478;8.936;2022-08-01T14:54:59;30.40;69.50
15343;DHT22;7771;48.478;8.936;2022-08-01T14:57:26;30.30;70.10
15343;DHT22;7771;48.478;8.936;2022-08-01T14:59:53;30.20;70.50
15343;DHT22;7771;48.478;8.936;2022-08-01T15:02:19;30.20;70.70
15343;DHT22;7771;48.478;8.936;2022-08-01T15:04:46;30.10;71.10
15343;DHT22;7771;48.478;8.936;2022-08-01T15:07:13;30.10;71.60
15343;DHT22;7771;48.478;8.936;2022-08-01T15:09:39;30.10;71.30
15343;DHT22;7771;48.478;8.936;2022-08-01T15:12:06;30.20;71.30
15343;DHT22;7771;48.478;8.936;2022-08-01T15:14:33;30.10;71.10
15343;DHT22;7771;48.478;8.936;2022-08-01T15:17:05;30.10;71.60
15343;DHT22;7771;48.478;8.936;2022-08-01T15:19:32;30.00;71.60
15343;DHT22;7771;48.478;8.936;2022-08-01T15:21:58;30.00;72.10
15343;DHT22;7771;48.478;8.936;2022-08-01T15:24:25;30.00;71.80
15343;DHT22;7771;48.478;8.936;2022-08-01T15:26:52;30.00;72.10
15343;DHT22;7771;48.478;8.936;2022-08-01T15:29:18;30.00;72.50
15343;DHT22;7771;48.478;8.936;2022-08-01T15:31:45;29.90;72.20
15343;DHT22;7771;48.478;8.936;2022-08-01T15:34:11;29.90;72.80
15343;DHT22;7771;48.478;8.936;2022-08-01T15:36:38;30.00;71.80
15343;DHT22;7771;48.478;8.936;2022-08-01T15:39:05;30.10;71.50
15343;DHT22;7771;48.478;8.936;2022-08-01T15:41:33;30.10;70.80
15343;DHT22;7771;48.478;8.936;2022-08-01T15:44:00;30.10;69.90
15343;DHT22;7771;48.478;8.936;2022-08-01T15:46:27;30.10;69.60
15343;DHT22;7771;48.478;8.936;2022-08-01T15:48:54;30.10;68.90
15343;DHT22;7771;48.478;8.936;2022-08-01T15:54:11;30.10;68.20
15343;DHT22;7771;48.478;8.936;2022-08-01T15:56:37;30.10;68.90
15343;DHT22;7771;48.478;8.936;2022-08-01T15:59:04;29.90;68.60
15343;DHT22;7771;48.478;8.936;2022-08-01T16:01:31;29.90;69.00
15343;DHT22;7771;48.478;8.936;2022-08-01T16:03:57;29.80;69.20
15343;DHT22;7771;48.478;8.936;2022-08-01T16:06:24;29.80;69.90